Search for airport 
image banner adimage banner adimage banner ad
image banner ad

PN89 - Ridgway

Located in Ridgway, United States

ICAO - PN89, IATA -

Data provided by Airmate  

General information

Coordinates: N41°25'25" W78°43'54"
Elevation is 2042 feet MSL.
Magnetic variation is -10° East
View others Airports in Pennsylvania

Operational data

Special qualification required
Current time UTC:
Current local time:
Weather at : KOYM - St Marys Muni ( 19 km )
METAR: KOYM 091359Z AUTO 00000KT 10SM SCT016 OVC090 05/02 A3005 RMK AO2
View NOTAMs / SUP AIP / TFR affecting this airport [VIEW]
Communications frequencies: [VIEW]

Runways:

Airport contact information

Address: Ridgway United States

Satellite view of PN89